sensor_id;sensor_type;location;lat;lon;timestamp;noise_LAeq;noise_LA_min;noise_LA_max;noise_LA01;noise_LA95
78074;Laerm;67283;50.960;13.856;2023-07-16T00:01:57;29.23;27.90;35.34;;
78074;Laerm;67283;50.960;13.856;2023-07-16T00:04:25;29.12;27.78;31.08;;
78074;Laerm;67283;50.960;13.856;2023-07-16T00:06:53;29.12;27.73;30.42;;
78074;Laerm;67283;50.960;13.856;2023-07-16T00:09:21;29.20;27.90;31.02;;
78074;Laerm;67283;50.960;13.856;2023-07-16T00:11:49;49.90;27.77;68.30;;
78074;Laerm;67283;50.960;13.856;2023-07-16T00:14:18;29.35;27.82;41.37;;
78074;Laerm;67283;50.960;13.856;2023-07-16T00:16:46;29.39;28.02;37.18;;
78074;Laerm;67283;50.960;13.856;2023-07-16T00:19:16;29.57;27.68;46.62;;
78074;Laerm;67283;50.960;13.856;2023-07-16T00:21:44;29.37;28.06;32.43;;
78074;Laerm;67283;50.960;13.856;2023-07-16T00:24:12;29.74;27.95;50.99;;
78074;Laerm;67283;50.960;13.856;2023-07-16T00:26:40;33.34;28.38;46.16;;
78074;Laerm;67283;50.960;13.856;2023-07-16T00:29:09;37.78;30.02;43.07;;
78074;Laerm;67283;50.960;13.856;2023-07-16T00:31:37;41.35;38.29;45.26;;
78074;Laerm;67283;50.960;13.856;2023-07-16T00:34:05;39.16;34.60;44.26;;
78074;Laerm;67283;50.960;13.856;2023-07-16T00:36:36;49.65;33.24;67.09;;
78074;Laerm;67283;50.960;13.856;2023-07-16T00:39:04;41.65;37.72;51.59;;
78074;Laerm;67283;50.960;13.856;2023-07-16T00:41:32;37.34;35.08;41.21;;
78074;Laerm;67283;50.960;13.856;2023-07-16T00:44:00;36.29;32.88;43.24;;
78074;Laerm;67283;50.960;13.856;2023-07-16T00:46:28;50.00;32.80;68.37;;
78074;Laerm;67283;50.960;13.856;2023-07-16T00:48:56;34.60;31.44;40.34;;
78074;Laerm;67283;50.960;13.856;2023-07-16T00:51:24;32.55;30.61;35.07;;
78074;Laerm;67283;50.960;13.856;2023-07-16T00:53:56;49.27;30.09;67.25;;
78074;Laerm;67283;50.960;13.856;2023-07-16T00:56:24;49.27;30.09;67.25;;
78074;Laerm;67283;50.960;13.856;2023-07-16T00:58:52;33.05;30.56;36.24;;
78074;Laerm;67283;50.960;13.856;2023-07-16T01:01:20;33.34;30.51;44.77;;
78074;Laerm;67283;50.960;13.856;2023-07-16T01:03:49;50.13;31.62;68.61;;
78074;Laerm;67283;50.960;13.856;2023-07-16T01:06:18;51.70;31.22;67.72;;
78074;Laerm;67283;50.960;13.856;2023-07-16T01:08:49;42.79;31.90;59.97;;
78074;Laerm;67283;50.960;13.856;2023-07-16T01:11:25;49.10;32.85;67.33;;
78074;Laerm;67283;50.960;13.856;2023-07-16T01:13:54;36.80;33.20;44.99;;
78074;Laerm;67283;50.960;13.856;2023-07-16T01:16:24;36.51;32.58;40.19;;
78074;Laerm;67283;50.960;13.856;2023-07-16T01:18:52;33.22;30.47;38.50;;
78074;Laerm;67283;50.960;13.856;2023-07-16T01:21:21;32.94;29.84;42.72;;
78074;Laerm;67283;50.960;13.856;2023-07-16T01:23:53;47.74;29.76;67.84;;
78074;Laerm;67283;50.960;13.856;2023-07-16T01:26:32;32.39;29.44;36.60;;
78074;Laerm;67283;50.960;13.856;2023-07-16T01:29:12;30.65;28.98;33.10;;
78074;Laerm;67283;50.960;13.856;2023-07-16T01:31:46;30.15;28.35;37.91;;
78074;Laerm;67283;50.960;13.856;2023-07-16T01:34:14;30.11;27.96;50.96;;
78074;Laerm;67283;50.960;13.856;2023-07-16T01:36:42;30.00;28.34;38.69;;
78074;Laerm;67283;50.960;13.856;2023-07-16T01:39:11;31.98;27.83;44.37;;
78074;Laerm;67283;50.960;13.856;2023-07-16T01:41:39;31.31;28.03;43.06;;
78074;Laerm;67283;50.960;13.856;2023-07-16T01:44:07;29.30;28.04;30.86;;
78074;Laerm;67283;50.960;13.856;2023-07-16T01:46:38;29.29;27.75;37.71;;
78074;Laerm;67283;50.960;13.856;2023-07-16T01:49:06;29.59;28.23;50.19;;
78074;Laerm;67283;50.960;13.856;2023-07-16T01:51:32;30.01;28.21;41.59;;
78074;Laerm;67283;50.960;13.856;2023-07-16T01:54:00;30.31;28.98;38.27;;
78074;Laerm;67283;50.960;13.856;2023-07-16T01:56:28;31.35;28.94;35.79;;
78074;Laerm;67283;50.960;13.856;2023-07-16T01:58:56;46.81;31.10;63.68;;
78074;Laerm;67283;50.960;13.856;2023-07-16T02:01:24;33.49;30.96;38.48;;
78074;Laerm;67283;50.960;13.856;2023-07-16T02:03:55;51.40;30.08;69.87;;
78074;Laerm;67283;50.960;13.856;2023-07-16T02:06:23;36.86;30.33;48.27;;
78074;Laerm;67283;50.960;13.856;2023-07-16T02:08:51;31.24;29.16;34.36;;
78074;Laerm;67283;50.960;13.856;2023-07-16T02:11:19;30.53;28.69;41.37;;
78074;Laerm;67283;50.960;13.856;2023-07-16T02:13:48;31.47;29.18;44.71;;
78074;Laerm;67283;50.960;13.856;2023-07-16T02:16:16;30.75;29.18;49.46;;
78074;Laerm;67283;50.960;13.856;2023-07-16T02:18:44;30.54;28.74;38.68;;
78074;Laerm;67283;50.960;13.856;2023-07-16T02:21:14;32.38;28.88;37.55;;
78074;Laerm;67283;50.960;13.856;2023-07-16T02:23:43;31.56;29.47;38.35;;
78074;Laerm;67283;50.960;13.856;2023-07-16T02:26:11;32.03;29.82;41.17;;
78074;Laerm;67283;50.960;13.856;2023-07-16T02:28:39;32.13;30.42;38.75;;
78074;Laerm;67283;50.960;13.856;2023-07-16T02:31:07;31.88;30.11;36.64;;
78074;Laerm;67283;50.960;13.856;2023-07-16T02:33:35;31.83;29.85;34.75;;
78074;Laerm;67283;50.960;13.856;2023-07-16T02:36:03;32.00;29.89;48.62;;
78074;Laerm;67283;50.960;13.856;2023-07-16T02:38:34;34.52;32.31;41.95;;
78074;Laerm;67283;50.960;13.856;2023-07-16T02:41:02;35.40;32.29;40.78;;
78074;Laerm;67283;50.960;13.856;2023-07-16T02:43:30;35.53;31.89;46.42;;
78074;Laerm;67283;50.960;13.856;2023-07-16T02:45:58;34.73;31.57;42.28;;
78074;Laerm;67283;50.960;13.856;2023-07-16T02:48:27;34.73;31.57;42.28;;
78074;Laerm;67283;50.960;13.856;2023-07-16T02:50:55;35.92;32.04;49.48;;
78074;Laerm;67283;50.960;13.856;2023-07-16T02:53:23;42.78;34.09;55.45;;
78074;Laerm;67283;50.960;13.856;2023-07-16T02:55:53;47.07;38.61;56.40;;
78074;Laerm;67283;50.960;13.856;2023-07-16T02:58:21;51.48;38.18;67.75;;
78074;Laerm;67283;50.960;13.856;2023-07-16T03:00:50;52.02;36.09;61.85;;
78074;Laerm;67283;50.960;13.856;2023-07-16T03:03:18;51.64;45.07;62.20;;
78074;Laerm;67283;50.960;13.856;2023-07-16T03:05:46;59.01;42.75;67.95;;
78074;Laerm;67283;50.960;13.856;2023-07-16T03:08:14;48.09;43.40;60.51;;
78074;Laerm;67283;50.960;13.856;2023-07-16T03:10:42;52.75;40.81;68.47;;
78074;Laerm;67283;50.960;13.856;2023-07-16T03:13:13;41.93;37.41;54.68;;
78074;Laerm;67283;50.960;13.856;2023-07-16T03:15:41;41.59;35.96;57.49;;
78074;Laerm;67283;50.960;13.856;2023-07-16T03:18:09;41.29;36.80;53.10;;
78074;Laerm;67283;50.960;13.856;2023-07-16T03:20:37;53.57;39.70;70.33;;
78074;Laerm;67283;50.960;13.856;2023-07-16T03:23:05;53.57;39.70;70.33;;
78074;Laerm;67283;50.960;13.856;2023-07-16T03:25:33;51.62;38.55;68.26;;
78074;Laerm;67283;50.960;13.856;2023-07-16T03:28:01;53.27;42.04;70.05;;
78074;Laerm;67283;50.960;13.856;2023-07-16T03:30:32;50.49;45.01;61.79;;
78074;Laerm;67283;50.960;13.856;2023-07-16T03:33:02;50.49;45.01;61.79;;
78074;Laerm;67283;50.960;13.856;2023-07-16T03:35:30;50.06;45.71;59.88;;
78074;Laerm;67283;50.960;13.856;2023-07-16T03:37:58;50.06;45.71;59.88;;
78074;Laerm;67283;50.960;13.856;2023-07-16T03:40:27;57.57;47.05;75.88;;
78074;Laerm;67283;50.960;13.856;2023-07-16T03:42:55;51.99;47.69;61.72;;
78074;Laerm;67283;50.960;13.856;2023-07-16T03:45:23;49.02;45.38;55.49;;
78074;Laerm;67283;50.960;13.856;2023-07-16T03:47:54;56.98;45.70;73.42;;
78074;Laerm;67283;50.960;13.856;2023-07-16T03:50:22;50.78;45.89;63.10;;
78074;Laerm;67283;50.960;13.856;2023-07-16T03:52:50;48.68;44.68;58.27;;
78074;Laerm;67283;50.960;13.856;2023-07-16T03:55:18;48.35;43.60;59.17;;
78074;Laerm;67283;50.960;13.856;2023-07-16T03:57:46;49.65;46.28;70.94;;
78074;Laerm;67283;50.960;13.856;2023-07-16T04:00:14;53.95;44.62;70.52;;
78074;Laerm;67283;50.960;13.856;2023-07-16T04:02:43;48.08;43.92;57.52;;
78074;Laerm;67283;50.960;13.856;2023-07-16T04:05:13;58.37;42.92;74.13;;
78074;Laerm;67283;50.960;13.856;2023-07-16T04:07:41;42.19;36.72;52.14;;
78074;Laerm;67283;50.960;13.856;2023-07-16T04:10:09;38.53;34.12;50.42;;
78074;Laerm;67283;50.960;13.856;2023-07-16T04:12:38;37.44;33.69;47.88;;
78074;Laerm;67283;50.960;13.856;2023-07-16T04:15:07;37.44;33.69;47.88;;
78074;Laerm;67283;50.960;13.856;2023-07-16T04:17:35;49.32;33.47;69.12;;
78074;Laerm;67283;50.960;13.856;2023-07-16T04:20:04;40.57;35.92;53.63;;
78074;Laerm;67283;50.960;13.856;2023-07-16T04:22:35;53.95;33.44;71.44;;
78074;Laerm;67283;50.960;13.856;2023-07-16T04:25:03;41.34;33.27;59.73;;
78074;Laerm;67283;50.960;13.856;2023-07-16T04:27:32;51.83;34.37;69.20;;
78074;Laerm;67283;50.960;13.856;2023-07-16T04:30:00;52.97;37.82;69.14;;
78074;Laerm;67283;50.960;13.856;2023-07-16T04:32:28;46.41;40.84;62.50;;
78074;Laerm;67283;50.960;13.856;2023-07-16T04:34:56;46.13;40.75;58.58;;
78074;Laerm;67283;50.960;13.856;2023-07-16T04:37:24;47.83;40.94;56.70;;
78074;Laerm;67283;50.960;13.856;2023-07-16T04:39:55;45.12;40.35;55.90;;
78074;Laerm;67283;50.960;13.856;2023-07-16T04:42:23;46.50;42.29;60.07;;
78074;Laerm;67283;50.960;13.856;2023-07-16T04:44:51;46.50;42.29;60.07;;
78074;Laerm;67283;50.960;13.856;2023-07-16T04:47:19;59.76;34.44;79.29;;
78074;Laerm;67283;50.960;13.856;2023-07-16T04:49:47;38.38;32.68;50.21;;
78074;Laerm;67283;50.960;13.856;2023-07-16T04:52:16;54.75;32.92;72.94;;
78074;Laerm;67283;50.960;13.856;2023-07-16T04:54:44;54.75;32.92;72.94;;
78074;Laerm;67283;50.960;13.856;2023-07-16T04:57:14;50.78;32.12;72.10;;
78074;Laerm;67283;50.960;13.856;2023-07-16T04:59:42;40.29;32.51;53.79;;
78074;Laerm;67283;50.960;13.856;2023-07-16T05:02:10;40.29;32.51;53.79;;
78074;Laerm;67283;50.960;13.856;2023-07-16T05:04:40;49.20;31.27;70.52;;
78074;Laerm;67283;50.960;13.856;2023-07-16T05:07:09;35.97;31.75;54.42;;
78074;Laerm;67283;50.960;13.856;2023-07-16T05:09:37;51.98;31.55;69.83;;
78074;Laerm;67283;50.960;13.856;2023-07-16T05:12:06;36.44;31.26;49.60;;
78074;Laerm;67283;50.960;13.856;2023-07-16T05:14:44;55.45;35.00;72.27;;
78074;Laerm;67283;50.960;13.856;2023-07-16T05:17:12;55.45;35.00;72.27;;
78074;Laerm;67283;50.960;13.856;2023-07-16T05:19:41;51.24;31.73;71.86;;
78074;Laerm;67283;50.960;13.856;2023-07-16T05:22:09;53.82;37.49;70.55;;
78074;Laerm;67283;50.960;13.856;2023-07-16T05:24:37;42.81;37.21;57.34;;
78074;Laerm;67283;50.960;13.856;2023-07-16T05:27:05;42.31;36.81;56.55;;
78074;Laerm;67283;50.960;13.856;2023-07-16T05:29:33;37.44;33.62;44.45;;
78074;Laerm;67283;50.960;13.856;2023-07-16T05:32:04;51.59;34.12;65.62;;
78074;Laerm;67283;50.960;13.856;2023-07-16T05:34:32;51.59;34.12;65.62;;
78074;Laerm;67283;50.960;13.856;2023-07-16T05:37:00;43.10;31.35;63.39;;
78074;Laerm;67283;50.960;13.856;2023-07-16T05:39:29;34.01;30.87;42.56;;
78074;Laerm;67283;50.960;13.856;2023-07-16T05:41:57;53.03;30.77;71.31;;
78074;Laerm;67283;50.960;13.856;2023-07-16T05:44:27;51.75;29.73;70.17;;
78074;Laerm;67283;50.960;13.856;2023-07-16T05:46:55;33.60;29.58;52.65;;
78074;Laerm;67283;50.960;13.856;2023-07-16T05:49:25;34.58;30.98;45.46;;
78074;Laerm;67283;50.960;13.856;2023-07-16T05:51:54;52.79;29.84;70.95;;
78074;Laerm;67283;50.960;13.856;2023-07-16T05:54:22;50.83;29.98;67.02;;
78074;Laerm;67283;50.960;13.856;2023-07-16T05:56:50;49.13;30.86;65.39;;
78074;Laerm;67283;50.960;13.856;2023-07-16T05:59:18;36.43;30.02;45.12;;
78074;Laerm;67283;50.960;13.856;2023-07-16T06:01:46;36.08;30.55;52.97;;
78074;Laerm;67283;50.960;13.856;2023-07-16T06:04:15;37.31;30.28;47.44;;
78074;Laerm;67283;50.960;13.856;2023-07-16T06:06:45;42.03;30.54;60.31;;
78074;Laerm;67283;50.960;13.856;2023-07-16T06:09:13;54.84;31.55;70.53;;
78074;Laerm;67283;50.960;13.856;2023-07-16T06:11:41;53.75;31.46;68.14;;
78074;Laerm;67283;50.960;13.856;2023-07-16T06:14:09;51.80;29.56;69.64;;
78074;Laerm;67283;50.960;13.856;2023-07-16T06:16:38;51.37;29.72;67.66;;
78074;Laerm;67283;50.960;13.856;2023-07-16T06:19:06;53.18;29.79;70.60;;
78074;Laerm;67283;50.960;13.856;2023-07-16T06:21:34;51.64;29.96;70.34;;
78074;Laerm;67283;50.960;13.856;2023-07-16T06:24:05;45.49;30.86;62.91;;
78074;Laerm;67283;50.960;13.856;2023-07-16T06:26:33;40.43;32.16;54.94;;
78074;Laerm;67283;50.960;13.856;2023-07-16T06:29:01;39.12;32.96;51.30;;
78074;Laerm;67283;50.960;13.856;2023-07-16T06:31:29;53.11;33.04;69.22;;
78074;Laerm;67283;50.960;13.856;2023-07-16T06:33:57;53.11;33.04;69.22;;
78074;Laerm;67283;50.960;13.856;2023-07-16T06:36:25;51.82;31.44;70.46;;
78074;Laerm;67283;50.960;13.856;2023-07-16T06:38:53;53.11;31.33;70.52;;
78074;Laerm;67283;50.960;13.856;2023-07-16T06:41:24;51.26;30.61;69.60;;
78074;Laerm;67283;50.960;13.856;2023-07-16T06:43:52;51.71;30.32;67.53;;
78074;Laerm;67283;50.960;13.856;2023-07-16T06:46:20;50.12;30.10;66.84;;
78074;Laerm;67283;50.960;13.856;2023-07-16T06:48:48;53.68;30.34;67.69;;
78074;Laerm;67283;50.960;13.856;2023-07-16T06:51:16;36.57;30.26;49.74;;
78074;Laerm;67283;50.960;13.856;2023-07-16T06:53:44;51.78;30.41;70.12;;
78074;Laerm;67283;50.960;13.856;2023-07-16T06:56:12;49.78;30.13;66.74;;
78074;Laerm;67283;50.960;13.856;2023-07-16T06:58:43;58.12;31.57;74.29;;
78074;Laerm;67283;50.960;13.856;2023-07-16T07:01:11;35.98;30.17;55.13;;
78074;Laerm;67283;50.960;13.856;2023-07-16T07:03:39;62.12;30.48;82.21;;
78074;Laerm;67283;50.960;13.856;2023-07-16T07:06:07;52.01;29.96;67.64;;
78074;Laerm;67283;50.960;13.856;2023-07-16T07:08:36;51.31;30.64;67.24;;
78074;Laerm;67283;50.960;13.856;2023-07-16T07:11:04;38.92;30.23;55.84;;
78074;Laerm;67283;50.960;13.856;2023-07-16T07:13:32;58.52;31.23;73.78;;
78074;Laerm;67283;50.960;13.856;2023-07-16T07:16:03;54.05;31.14;69.60;;
78074;Laerm;67283;50.960;13.856;2023-07-16T07:18:31;51.92;31.30;69.47;;
78074;Laerm;67283;50.960;13.856;2023-07-16T07:20:59;55.73;32.07;71.31;;
78074;Laerm;67283;50.960;13.856;2023-07-16T07:23:27;55.82;32.32;72.91;;
78074;Laerm;67283;50.960;13.856;2023-07-16T07:25:55;54.43;35.14;67.91;;
78074;Laerm;67283;50.960;13.856;2023-07-16T07:28:24;53.61;33.51;71.44;;
78074;Laerm;67283;50.960;13.856;2023-07-16T07:30:53;57.89;34.15;71.02;;
78074;Laerm;67283;50.960;13.856;2023-07-16T07:33:23;58.29;36.20;70.77;;
78074;Laerm;67283;50.960;13.856;2023-07-16T07:35:52;52.31;34.37;68.21;;
78074;Laerm;67283;50.960;13.856;2023-07-16T07:38:20;54.67;35.82;68.38;;
78074;Laerm;67283;50.960;13.856;2023-07-16T07:40:49;54.69;38.04;69.87;;
78074;Laerm;67283;50.960;13.856;2023-07-16T07:43:17;40.68;35.80;55.85;;
78074;Laerm;67283;50.960;13.856;2023-07-16T07:45:45;56.96;35.47;71.96;;
78074;Laerm;67283;50.960;13.856;2023-07-16T07:48:13;54.21;38.20;70.79;;
78074;Laerm;67283;50.960;13.856;2023-07-16T07:50:44;48.64;38.93;62.96;;
78074;Laerm;67283;50.960;13.856;2023-07-16T07:53:13;53.92;38.65;70.20;;
78074;Laerm;67283;50.960;13.856;2023-07-16T07:55:43;51.90;39.84;70.71;;
78074;Laerm;67283;50.960;13.856;2023-07-16T07:58:12;56.04;37.44;70.60;;
78074;Laerm;67283;50.960;13.856;2023-07-16T08:00:40;54.16;34.12;69.37;;
78074;Laerm;67283;50.960;13.856;2023-07-16T08:03:08;59.23;34.25;73.83;;
78074;Laerm;67283;50.960;13.856;2023-07-16T08:05:36;54.78;34.42;69.71;;
78074;Laerm;67283;50.960;13.856;2023-07-16T08:08:07;51.66;33.32;68.55;;
78074;Laerm;67283;50.960;13.856;2023-07-16T08:10:35;53.37;32.63;70.30;;
78074;Laerm;67283;50.960;13.856;2023-07-16T08:13:03;58.27;32.55;71.15;;
78074;Laerm;67283;50.960;13.856;2023-07-16T08:15:31;55.49;33.29;74.44;;
78074;Laerm;67283;50.960;13.856;2023-07-16T08:17:59;60.08;33.33;74.88;;
78074;Laerm;67283;50.960;13.856;2023-07-16T08:20:27;55.80;33.21;68.65;;
78074;Laerm;67283;50.960;13.856;2023-07-16T08:22:55;59.89;36.04;73.53;;
78074;Laerm;67283;50.960;13.856;2023-07-16T08:25:26;54.17;31.29;67.60;;
78074;Laerm;67283;50.960;13.856;2023-07-16T08:27:54;53.61;30.69;73.24;;
78074;Laerm;67283;50.960;13.856;2023-07-16T08:30:22;57.20;30.68;70.83;;
78074;Laerm;67283;50.960;13.856;2023-07-16T08:32:50;58.37;31.33;70.37;;
78074;Laerm;67283;50.960;13.856;2023-07-16T08:35:19;54.43;30.54;68.81;;
78074;Laerm;67283;50.960;13.856;2023-07-16T08:37:47;56.10;31.24;71.51;;
78074;Laerm;67283;50.960;13.856;2023-07-16T08:40:15;56.21;31.29;73.05;;
78074;Laerm;67283;50.960;13.856;2023-07-16T08:42:46;56.89;32.31;77.52;;
78074;Laerm;67283;50.960;13.856;2023-07-16T08:45:16;56.83;30.38;69.01;;
78074;Laerm;67283;50.960;13.856;2023-07-16T08:47:47;58.68;33.07;73.87;;
78074;Laerm;67283;50.960;13.856;2023-07-16T08:50:15;59.17;33.66;81.97;;
78074;Laerm;67283;50.960;13.856;2023-07-16T08:52:44;59.17;33.66;81.97;;
78074;Laerm;67283;50.960;13.856;2023-07-16T08:55:13;62.45;31.56;85.05;;
78074;Laerm;67283;50.960;13.856;2023-07-16T08:57:41;52.03;36.15;67.97;;
78074;Laerm;67283;50.960;13.856;2023-07-16T09:00:13;57.42;33.78;76.55;;
78074;Laerm;67283;50.960;13.856;2023-07-16T09:02:42;56.01;34.32;70.79;;
78074;Laerm;67283;50.960;13.856;2023-07-16T09:05:10;57.78;40.86;70.58;;
78074;Laerm;67283;50.960;13.856;2023-07-16T09:07:39;58.37;36.39;79.33;;
78074;Laerm;67283;50.960;13.856;2023-07-16T14:56:41;61.44;30.74;76.29;;
78074;Laerm;67283;50.960;13.856;2023-07-16T14:59:09;63.66;35.77;83.18;;
78074;Laerm;67283;50.960;13.856;2023-07-16T15:01:37;56.46;31.60;74.42;;
78074;Laerm;67283;50.960;13.856;2023-07-16T15:04:05;60.59;34.03;79.14;;
78074;Laerm;67283;50.960;13.856;2023-07-16T15:06:33;60.72;30.23;83.24;;
78074;Laerm;67283;50.960;13.856;2023-07-16T15:09:01;60.09;32.51;72.55;;
78074;Laerm;67283;50.960;13.856;2023-07-16T15:11:30;59.22;32.14;74.02;;
78074;Laerm;67283;50.960;13.856;2023-07-16T15:14:01;58.94;38.47;68.59;;
78074;Laerm;67283;50.960;13.856;2023-07-16T15:16:29;55.94;31.16;74.47;;
78074;Laerm;67283;50.960;13.856;2023-07-16T15:18:58;58.01;30.99;72.10;;
78074;Laerm;67283;50.960;13.856;2023-07-16T15:21:27;55.38;32.07;66.80;;
78074;Laerm;67283;50.960;13.856;2023-07-16T15:23:55;55.59;30.28;70.22;;
78074;Laerm;67283;50.960;13.856;2023-07-16T15:26:23;58.69;29.66;69.82;;
78074;Laerm;67283;50.960;13.856;2023-07-16T15:28:53;59.22;30.30;76.08;;
78074;Laerm;67283;50.960;13.856;2023-07-16T15:31:23;58.74;30.74;76.80;;
78074;Laerm;67283;50.960;13.856;2023-07-16T15:33:53;60.99;30.69;76.26;;
78074;Laerm;67283;50.960;13.856;2023-07-16T15:36:21;58.33;31.54;73.64;;
78074;Laerm;67283;50.960;13.856;2023-07-16T15:38:50;58.45;30.51;71.28;;
78074;Laerm;67283;50.960;13.856;2023-07-16T15:41:18;58.43;32.01;75.44;;
78074;Laerm;67283;50.960;13.856;2023-07-16T15:43:50;58.43;32.01;75.44;;
78074;Laerm;67283;50.960;13.856;2023-07-16T15:46:18;57.48;30.04;77.99;;
78074;Laerm;67283;50.960;13.856;2023-07-16T15:48:49;59.03;31.17;72.94;;
78074;Laerm;67283;50.960;13.856;2023-07-16T15:51:17;53.30;30.01;68.49;;
78074;Laerm;67283;50.960;13.856;2023-07-16T15:53:45;57.19;29.72;72.44;;
78074;Laerm;67283;50.960;13.856;2023-07-16T15:56:13;57.19;29.72;72.44;;
78074;Laerm;67283;50.960;13.856;2023-07-16T15:58:41;60.72;30.59;77.22;;
78074;Laerm;67283;50.960;13.856;2023-07-16T16:01:09;57.28;30.04;72.34;;
78074;Laerm;67283;50.960;13.856;2023-07-16T16:03:37;57.94;29.90;74.03;;
78074;Laerm;67283;50.960;13.856;2023-07-16T16:06:08;57.12;29.83;70.59;;
78074;Laerm;67283;50.960;13.856;2023-07-16T16:08:36;58.53;31.77;72.55;;
78074;Laerm;67283;50.960;13.856;2023-07-16T16:11:04;56.84;30.57;75.08;;
78074;Laerm;67283;50.960;13.856;2023-07-16T16:13:32;63.08;31.02;81.53;;
78074;Laerm;67283;50.960;13.856;2023-07-16T16:16:00;61.60;53.15;79.38;;
78074;Laerm;67283;50.960;13.856;2023-07-16T16:18:28;62.04;53.68;75.40;;
78074;Laerm;67283;50.960;13.856;2023-07-16T16:20:56;58.65;53.61;70.03;;
78074;Laerm;67283;50.960;13.856;2023-07-16T16:23:27;58.49;53.81;70.13;;
78074;Laerm;67283;50.960;13.856;2023-07-16T16:25:55;61.99;53.31;76.69;;
78074;Laerm;67283;50.960;13.856;2023-07-16T16:28:23;61.55;53.77;72.68;;
78074;Laerm;67283;50.960;13.856;2023-07-16T16:30:52;59.86;53.58;70.65;;
78074;Laerm;67283;50.960;13.856;2023-07-16T16:33:20;58.79;53.67;72.72;;
78074;Laerm;67283;50.960;13.856;2023-07-16T16:35:48;56.31;53.42;66.30;;
78074;Laerm;67283;50.960;13.856;2023-07-16T16:38:16;57.83;53.45;70.05;;
78074;Laerm;67283;50.960;13.856;2023-07-16T16:40:47;57.83;53.45;70.05;;
78074;Laerm;67283;50.960;13.856;2023-07-16T16:43:15;64.08;54.02;72.89;;
78074;Laerm;67283;50.960;13.856;2023-07-16T16:45:43;64.56;59.43;74.07;;
78074;Laerm;67283;50.960;13.856;2023-07-16T16:48:13;64.60;59.62;68.39;;
78074;Laerm;67283;50.960;13.856;2023-07-16T16:50:41;64.60;59.62;68.39;;
78074;Laerm;67283;50.960;13.856;2023-07-16T16:53:09;64.35;58.97;71.91;;
78074;Laerm;67283;50.960;13.856;2023-07-16T16:55:38;64.35;58.97;71.91;;
78074;Laerm;67283;50.960;13.856;2023-07-16T16:58:08;65.34;58.48;79.37;;
78074;Laerm;67283;50.960;13.856;2023-07-16T17:00:36;65.50;59.83;75.44;;
78074;Laerm;67283;50.960;13.856;2023-07-16T17:03:04;64.60;59.45;70.78;;
78074;Laerm;67283;50.960;13.856;2023-07-16T17:05:32;64.93;59.94;70.93;;
78074;Laerm;67283;50.960;13.856;2023-07-16T17:08:00;64.66;60.05;69.15;;
78074;Laerm;67283;50.960;13.856;2023-07-16T17:10:29;64.95;59.96;72.68;;
78074;Laerm;67283;50.960;13.856;2023-07-16T17:12:57;64.81;60.77;70.72;;
78074;Laerm;67283;50.960;13.856;2023-07-16T17:15:28;64.12;61.45;67.04;;
78074;Laerm;67283;50.960;13.856;2023-07-16T17:17:56;63.80;59.90;70.88;;
78074;Laerm;67283;50.960;13.856;2023-07-16T17:20:24;63.90;59.54;69.65;;
78074;Laerm;67283;50.960;13.856;2023-07-16T17:22:52;64.38;58.09;73.17;;
78074;Laerm;67283;50.960;13.856;2023-07-16T17:25:20;62.25;57.13;68.01;;
78074;Laerm;67283;50.960;13.856;2023-07-16T17:27:48;65.22;57.80;77.67;;
78074;Laerm;67283;50.960;13.856;2023-07-16T17:30:16;65.22;57.80;77.67;;
78074;Laerm;67283;50.960;13.856;2023-07-16T17:32:47;62.97;42.74;73.67;;
78074;Laerm;67283;50.960;13.856;2023-07-16T17:35:15;62.97;42.74;73.67;;
78074;Laerm;67283;50.960;13.856;2023-07-16T17:37:43;56.86;29.40;73.10;;
78074;Laerm;67283;50.960;13.856;2023-07-16T17:40:12;52.48;29.44;69.49;;
78074;Laerm;67283;50.960;13.856;2023-07-16T17:42:40;59.78;29.33;77.61;;
78074;Laerm;67283;50.960;13.856;2023-07-16T17:45:09;53.17;29.22;70.55;;
78074;Laerm;67283;50.960;13.856;2023-07-16T17:47:37;44.32;29.90;57.25;;
78074;Laerm;67283;50.960;13.856;2023-07-16T17:50:08;55.46;29.61;69.53;;
78074;Laerm;67283;50.960;13.856;2023-07-16T17:52:36;52.72;29.03;69.56;;
78074;Laerm;67283;50.960;13.856;2023-07-16T17:55:05;54.56;29.39;71.23;;
78074;Laerm;67283;50.960;13.856;2023-07-16T17:57:33;51.70;29.92;67.26;;
78074;Laerm;67283;50.960;13.856;2023-07-16T18:00:01;52.58;29.36;69.08;;
78074;Laerm;67283;50.960;13.856;2023-07-16T18:02:31;32.55;28.42;47.44;;
78074;Laerm;67283;50.960;13.856;2023-07-16T18:04:59;57.44;29.43;72.85;;
78074;Laerm;67283;50.960;13.856;2023-07-16T18:07:30;54.00;29.41;67.93;;
78074;Laerm;67283;50.960;13.856;2023-07-16T18:09:58;55.34;29.77;69.65;;
78074;Laerm;67283;50.960;13.856;2023-07-16T18:12:27;57.27;31.03;70.23;;
78074;Laerm;67283;50.960;13.856;2023-07-16T18:14:55;60.13;31.93;72.10;;
78074;Laerm;67283;50.960;13.856;2023-07-16T18:17:23;52.32;30.30;68.35;;
78074;Laerm;67283;50.960;13.856;2023-07-16T18:19:52;54.54;30.44;69.73;;
78074;Laerm;67283;50.960;13.856;2023-07-16T18:22:20;61.07;30.57;77.29;;
78074;Laerm;67283;50.960;13.856;2023-07-16T18:24:51;61.07;30.57;77.29;;
78074;Laerm;67283;50.960;13.856;2023-07-16T18:27:19;48.82;29.15;65.18;;
78074;Laerm;67283;50.960;13.856;2023-07-16T18:29:47;52.02;29.31;69.43;;
78074;Laerm;67283;50.960;13.856;2023-07-16T18:32:15;36.86;28.78;54.69;;
78074;Laerm;67283;50.960;13.856;2023-07-16T18:34:44;55.25;29.15;68.87;;
78074;Laerm;67283;50.960;13.856;2023-07-16T18:37:12;49.35;29.14;65.63;;
78074;Laerm;67283;50.960;13.856;2023-07-16T18:39:40;54.70;28.93;69.94;;
78074;Laerm;67283;50.960;13.856;2023-07-16T18:42:11;32.65;29.15;55.19;;
78074;Laerm;67283;50.960;13.856;2023-07-16T18:44:39;55.68;29.36;70.70;;
78074;Laerm;67283;50.960;13.856;2023-07-16T18:47:07;53.20;29.35;71.47;;
78074;Laerm;67283;50.960;13.856;2023-07-16T18:49:35;51.72;29.54;67.30;;
78074;Laerm;67283;50.960;13.856;2023-07-16T18:52:03;51.78;29.73;68.70;;
78074;Laerm;67283;50.960;13.856;2023-07-16T18:54:31;51.78;29.73;68.70;;
78074;Laerm;67283;50.960;13.856;2023-07-16T18:56:59;54.33;30.54;78.18;;
78074;Laerm;67283;50.960;13.856;2023-07-16T18:59:30;59.56;32.23;77.76;;
78074;Laerm;67283;50.960;13.856;2023-07-16T19:01:58;41.26;32.02;61.11;;
78074;Laerm;67283;50.960;13.856;2023-07-16T19:04:26;41.26;32.02;61.11;;
78074;Laerm;67283;50.960;13.856;2023-07-16T19:06:55;53.92;32.03;71.44;;
78074;Laerm;67283;50.960;13.856;2023-07-16T19:09:23;51.03;31.62;69.38;;
78074;Laerm;67283;50.960;13.856;2023-07-16T19:11:51;58.87;32.22;73.96;;
78074;Laerm;67283;50.960;13.856;2023-07-16T19:14:20;56.22;33.04;74.65;;
78074;Laerm;67283;50.960;13.856;2023-07-16T19:16:50;38.26;32.48;63.33;;
78074;Laerm;67283;50.960;13.856;2023-07-16T19:19:18;49.97;33.41;64.18;;
78074;Laerm;67283;50.960;13.856;2023-07-16T19:21:47;50.17;32.94;69.36;;
78074;Laerm;67283;50.960;13.856;2023-07-16T19:24:15;53.38;32.79;70.08;;
78074;Laerm;67283;50.960;13.856;2023-07-16T19:26:43;56.30;32.61;71.39;;